Ship Status Report: callsign DIANEG

sailwx.info

Track history (hours):
 
Tides and Currents Weather Stations Pressure Air Temp Water Temp Dewpoint Dewpoint Depression Visibility Wind Speed Wind Dir Waves Ship Positions

Callsign DIANEG (name unknown)

Last reported at 2016-Nov-13 03:27 UTC. Time now 2017-Jan-19 08:56 UTC.
Position N 34°04' W 119°13'.
Warning: this ship's position is months out of date.

Date/timePositionNaut miles runAvg speedWind from/ knotsBaromVisibWave heightAir tempDewpointWater temp
2016-Nov-13 03:27N 34°04' W 119°13'59 9.6
2016-Nov-12 21:22N 33°06' W 119°06'20 9.1
2016-Nov-12 19:11N 32°47' W 119°03'  
2016-Nov-05 02:30N 34°07' W 119°14'9 9.1
2016-Nov-05 01:33N 34°00' W 119°08'19 9.4
2016-Nov-04 23:33N 33°45' W 118°55'9 9.3
2016-Nov-04 22:33N 33°37' W 118°48'21 9.3
2016-Nov-04 20:16N 33°20' W 118°33'15 8.5
2016-Nov-04 18:33N 33°07' W 118°27'11 5.4
2016-Nov-04 16:33N 32°58' W 118°20'11 5.4
2016-Nov-04 14:33N 33°08' W 118°25'18 9.0
2016-Nov-04 12:33N 33°22' W 118°39'37 9.3
2016-Nov-04 08:33N 33°53' W 119°04'9 9.2
2016-Nov-04 07:33N 34°01' W 119°09'  
Track history (hours):
 
Tides and Currents Weather Stations Pressure Air Temp Water Temp Dewpoint Dewpoint Depression Visibility Wind Speed Wind Dir Waves Ship Positions

Callsign DIANEG (name unknown)

Last reported at 2016-Nov-13 03:27 UTC. Time now 2017-Jan-19 08:56 UTC.
Position N 34°04' W 119°13'.
Warning: this ship's position is months out of date.

Date/timePositionNaut miles runAvg speedWind from/ knotsBaromVisibWave heightAir tempDewpointWater temp
2016-Nov-13 03:27N 34°04' W 119°13'59 9.6
2016-Nov-12 21:22N 33°06' W 119°06'20 9.1
2016-Nov-12 19:11N 32°47' W 119°03'  
2016-Nov-05 02:30N 34°07' W 119°14'9 9.1
2016-Nov-05 01:33N 34°00' W 119°08'19 9.4
2016-Nov-04 23:33N 33°45' W 118°55'9 9.3
2016-Nov-04 22:33N 33°37' W 118°48'21 9.3
2016-Nov-04 20:16N 33°20' W 118°33'15 8.5
2016-Nov-04 18:33N 33°07' W 118°27'11 5.4
2016-Nov-04 16:33N 32°58' W 118°20'11 5.4
2016-Nov-04 14:33N 33°08' W 118°25'18 9.0
2016-Nov-04 12:33N 33°22' W 118°39'37 9.3
2016-Nov-04 08:33N 33°53' W 119°04'9 9.2
2016-Nov-04 07:33N 34°01' W 119°09'  

Dump ship's entire track history